Latest Weather Observations for Gabo Island

IDN60801

Issued at 3:42 am EDT Wednesday 27 March 2019 (issued every 10 minutes, with the page automatically refreshed every 10 minutes)

About weather observations | Map of weather stations | Latest weather observations for NSW | Other Formats
Station Details ID: 084016 Name: GABO ISLAND LIGHTHOUSE Lat: -37.57 Lon: 149.92 Height: 15.2 m
Data from the previous 72 hours. | See also: Recent months at Gabo Island
Date/Time
EDT
Temp
°C
App
Temp
°C
Dew
Point
°C
Rel
Hum
%
Delta-T
°C
Wind Press
QNH
hPa
Press
MSL
hPa
Rain since
9am
mm
Dir  Spd
km/h
Gust
km/h
Spd
kts
Gust
kts
27/03:30am 14.7 10.5 8.3 65 3.2 WNW 20 28 11 15 1022.5 - 0.0
27/03:00am 14.7 10.7 9.0 68 2.9 WNW 20 30 11 16 1022.5 1022.5 0.0
27/02:30am 14.6 10.7 8.6 67 3.0 WNW 19 26 10 14 1022.6 - 0.0
27/02:00am 14.3 10.3 9.0 70 2.7 WNW 20 30 11 16 1022.5 - 0.0
27/01:30am 14.3 10.5 9.2 71 2.6 WNW 19 26 10 14 1022.4 - 0.0
27/01:00am 14.1 10.4 9.6 74 2.3 NW 19 24 10 13 1022.5 - 0.0
27/12:30am 14.4 10.4 9.1 70 2.7 WNW 20 28 11 15 1022.5 - 0.0
27/12:00am 15.1 11.7 10.7 75 2.3 W 19 28 10 15 1022.4 1022.4 0.0
 
Date/Time
EDT
Temp
°C
App
Temp
°C
Dew
Point
°C
Rel
Hum
%
Delta-T
°C
Wind Press
QNH
hPa
Press
MSL
hPa
Rain since
9am
mm
Dir  Spd
km/h
Gust
km/h
Spd
kts
Gust
kts
26/11:30pm 15.3 11.6 10.1 71 2.7 W 20 33 11 18 1022.3 - 0.0
26/11:00pm 15.9 11.1 10.4 70 2.9 W 26 33 14 18 1022.1 - 0.0
26/10:30pm 16.0 11.1 10.1 68 3.1 W 26 37 14 20 1021.9 - 0.0
26/10:00pm 16.7 10.2 9.1 61 3.9 WSW 33 41 18 22 1021.7 - 0.0
26/09:41pm 17.1 9.8 10.3 64 3.6 WSW 39 57 21 31 1021.5 - 0.0
26/09:30pm 17.3 8.7 9.0 58 4.3 WSW 44 57 24 31 1021.4 - 0.0
26/09:04pm 17.5 9.0 10.8 65 3.6 SW 46 65 25 35 1021.2 - 0.0
26/09:00pm 17.7 7.7 9.5 58 4.3 SW 52 65 28 35 1021.1 1020.6 0.0
26/08:40pm 17.6 8.6 10.2 62 3.9 SW 48 69 26 37 1020.5 - 0.0
26/08:30pm 17.4 9.0 9.8 61 4.0 SW 44 57 24 31 1020.4 - 0.0
26/08:17pm 17.5 8.1 10.3 62 3.8 WSW 50 69 27 37 1020.0 - 0.0
26/08:00pm 17.3 8.1 9.4 59 4.1 WSW 48 61 26 33 1019.9 - 0.0
26/07:40pm 17.4 8.1 10.4 63 3.7 SW 50 69 27 37 1019.5 - 0.0
26/07:30pm 17.6 7.8 10.2 62 3.9 WSW 52 65 28 35 1019.1 - 0.0
26/07:00pm 17.1 6.3 10.1 63 3.7 WSW 57 70 31 38 1018.7 - 0.0
26/06:33pm 17.7 7.0 10.2 61 4.0 SW 57 76 31 41 1018.3 - 0.0
26/06:30pm 17.6 6.5 10.3 62 3.9 SW 59 76 32 41 1018.3 - 0.0
26/06:18pm 17.8 7.0 10.1 60 4.1 SW 57 76 31 41 1017.6 - 0.0
26/06:00pm 18.2 7.5 9.7 57 4.5 SW 56 67 30 36 1017.8 1017.4 0.0
26/05:31pm 18.1 7.3 9.1 55 4.7 WSW 56 74 30 40 1017.5 - 0.0
26/05:30pm 17.9 6.6 8.1 52 5.0 WSW 57 74 31 40 1017.5 - 0.0
26/05:12pm 18.2 7.3 9.0 55 4.8 SW 56 74 30 40 1016.8 - 0.0
26/05:00pm 18.5 7.9 8.4 51 5.2 WSW 54 69 29 37 1016.7 - 0.0
26/04:30pm 18.6 7.7 7.3 47 5.7 WSW 54 70 29 38 1016.6 - 0.0
26/04:21pm 19.1 7.7 6.7 44 6.2 WSW 56 74 30 40 1016.6 - 0.0
26/04:00pm 18.4 6.3 7.8 50 5.4 WSW 61 76 33 41 1016.4 - 0.0
26/03:30pm 19.0 6.4 7.4 47 5.9 WSW 63 85 34 46 1015.6 - 0.0
26/03:25pm 19.0 7.5 7.1 46 6.0 WSW 57 85 31 46 1015.7 - 0.0
26/03:00pm 18.7 7.9 5.9 43 6.3 WSW 52 70 28 38 1015.8 1015.6 0.0
26/02:52pm 19.1 8.6 7.2 46 6.0 WSW 52 70 28 38 1015.7 - 0.0
26/02:30pm 19.3 9.0 6.5 43 6.4 WSW 50 61 27 33 1015.6 - 0.0
26/02:00pm 19.1 8.4 6.5 43 6.3 WSW 52 67 28 36 1015.5 - 0.0
26/01:43pm 19.6 9.4 5.0 38 7.1 WSW 48 67 26 36 1015.7 - 0.0
26/01:30pm 19.5 10.0 5.1 38 7.0 WSW 44 54 24 29 1015.6 - 0.0
26/01:16pm 19.2 9.7 4.7 38 7.0 WSW 44 63 24 34 1015.6 - 0.0
26/01:00pm 19.0 8.0 4.9 39 6.8 WSW 52 65 28 35 1015.4 - 0.0
26/12:30pm 19.3 10.6 5.9 41 6.6 WSW 41 56 22 30 1015.4 - 0.0
26/12:00pm 18.2 8.3 2.8 35 7.1 WSW 44 63 24 34 1015.1 1015.2 0.0
26/11:31am 18.2 8.7 4.0 39 6.7 WSW 43 63 23 34 1015.3 - 0.0
26/11:30am 18.4 9.0 4.6 40 6.6 WSW 43 54 23 29 1015.4 - 0.0
26/11:06am 17.7 8.0 2.6 36 6.9 WSW 43 61 23 33 1015.3 - 0.0
26/11:00am 17.9 8.8 3.8 39 6.6 WSW 41 52 22 28 1015.3 - 0.0
26/10:30am 17.2 8.6 2.4 37 6.7 W 37 50 20 27 1015.0 - 0.0
26/10:00am 16.6 8.7 2.1 37 6.5 W 33 41 18 22 1015.0 - 0.0
26/09:30am 16.0 9.8 4.5 46 5.4 W 26 35 14 19 1014.8 - 0.0
26/09:00am 15.3 10.9 4.6 49 5.0 W 17 26 9 14 1014.5 1014.4 0.2
26/08:30am 15.0 10.1 3.9 47 5.1 W 19 24 10 13 1014.3 - 0.2
26/08:00am 14.2 10.3 3.6 49 4.8 WNW 13 22 7 12 1013.9 - 0.2
26/07:30am 13.1 9.3 3.8 53 4.2 WNW 13 19 7 10 1013.5 - 0.2
26/07:00am 12.4 8.8 4.8 60 3.5 WNW 13 19 7 10 1012.9 - 0.2
26/06:30am 12.4 8.9 5.3 62 3.3 WNW 13 19 7 10 1012.8 - 0.2
26/06:00am 11.9 8.4 5.4 64 3.0 W 13 15 7 8 1012.3 1012.1 0.2
26/05:30am 12.3 8.4 5.2 62 3.3 WNW 15 20 8 11 1011.9 - 0.2
26/05:00am 12.8 9.5 6.5 65 3.0 WNW 13 20 7 11 1011.6 - 0.2
26/04:30am 13.9 9.0 6.9 62 3.4 W 22 26 12 14 1011.5 - 0.2
26/04:00am 14.2 9.3 6.8 61 3.6 WSW 22 30 12 16 1011.6 - 0.2
26/03:30am 14.0 9.5 6.0 58 3.8 W 19 26 10 14 1011.5 - 0.2
26/03:00am 13.1 9.7 5.9 61 3.4 WNW 13 15 7 8 1011.7 1011.6 0.2
26/02:30am 12.7 9.6 5.7 62 3.3 NNW 11 13 6 7 1011.7 - 0.2
26/02:00am 12.5 9.5 5.9 64 3.1 NW 11 15 6 8 1011.5 - 0.2
26/01:30am 12.8 10.3 6.5 65 3.0 NW 9 13 5 7 1011.4 - 0.2
26/01:00am 13.6 10.8 7.0 64 3.2 NW 11 17 6 9 1011.4 - 0.2
26/12:30am 14.0 10.5 7.0 62 3.4 W 15 22 8 12 1011.3 - 0.2
26/12:00am 14.5 11.6 8.3 66 3.1 WNW 13 17 7 9 1011.4 1011.3 0.2
 
Date/Time
EDT
Temp
°C
App
Temp
°C
Dew
Point
°C
Rel
Hum
%
Delta-T
°C
Wind Press
QNH
hPa
Press
MSL
hPa
Rain since
9am
mm
Dir  Spd
km/h
Gust
km/h
Spd
kts
Gust
kts
25/11:30pm 15.4 11.6 9.0 65 3.3 W 19 30 10 16 1011.2 - 0.2
25/11:24pm 15.5 11.5 8.9 65 3.4 W 20 43 11 23 1011.2 - 0.2
25/11:00pm 16.6 8.3 7.7 55 4.5 WSW 41 50 22 27 1010.9 - 0.2
25/10:30pm 16.5 8.2 7.8 56 4.4 WSW 41 52 22 28 1010.6 - 0.2
25/10:00pm 16.2 8.3 7.9 58 4.2 WSW 39 50 21 27 1010.5 - 0.2
25/09:30pm 16.5 8.3 8.0 57 4.3 WSW 41 54 22 29 1010.0 - 0.2
25/09:00pm 16.5 9.0 7.8 56 4.4 WSW 37 48 20 26 1009.7 1009.5 0.2
25/08:30pm 16.5 9.3 7.8 56 4.4 WSW 35 43 19 23 1009.3 - 0.2
25/08:00pm 16.8 8.4 7.4 54 4.7 WSW 41 54 22 29 1008.7 - 0.2
25/07:30pm 17.3 9.2 8.8 57 4.4 WSW 41 52 22 28 1008.2 - 0.2
25/07:00pm 17.8 8.6 9.4 58 4.4 WSW 48 59 26 32 1007.7 - 0.2
25/06:30pm 18.4 8.5 11.0 62 4.0 SW 54 69 29 37 1007.0 - 0.2
25/06:00pm 19.4 10.5 10.5 56 4.8 SW 48 72 26 39 1006.2 1006.0 0.2
25/05:56pm 19.3 9.5 10.2 55 4.9 SW 52 70 28 38 1006.1 - 0.2
25/05:30pm 19.3 9.5 10.2 55 4.9 SW 52 61 28 33 1005.7 - 0.2
25/05:00pm 19.4 11.2 11.6 60 4.3 SW 46 56 25 30 1005.1 - 0.2
25/04:30pm 18.8 9.6 10.9 60 4.3 SW 50 57 27 31 1004.6 - 0.2
25/04:00pm 19.1 10.8 12.5 65 3.7 SW 48 57 26 31 1004.2 - 0.2
25/03:30pm 18.7 11.0 13.4 71 3.0 SSW 46 52 25 28 1003.7 - 0.2
25/03:00pm 18.6 12.3 14.7 78 2.3 SSW 41 56 22 30 1003.5 1003.3 0.2
25/02:30pm 19.1 12.8 14.5 74 2.7 SSW 41 48 22 26 1002.9 - 0.2
25/02:00pm 20.2 15.5 14.9 71 3.1 SSW 33 39 18 21 1003.1 - 0.2
25/01:30pm 21.1 18.6 15.2 69 3.5 SSW 22 26 12 14 1002.8 - 0.2
25/01:00pm 20.8 16.7 14.9 69 3.5 SSW 30 35 16 19 1002.2 - 0.2
25/12:30pm 21.0 18.5 16.2 74 2.9 SSW 24 28 13 15 1002.0 - 0.2
25/12:00pm 19.5 15.4 16.0 80 2.1 SSW 32 35 17 19 1002.4 1002.1 0.2
25/11:30am 20.1 15.9 17.2 83 1.8 SSW 35 43 19 23 1002.0 - 0.0
25/11:00am 20.8 15.8 17.9 83 1.8 SSW 41 48 22 26 1001.7 - 0.0
25/10:42am 21.7 17.9 18.9 84 1.8 SSW 37 43 20 23 1001.3 - 0.0
25/10:30am 23.0 20.6 17.4 70 3.5 SW 26 35 14 19 1000.9 - 0.0
25/10:00am 26.9 24.4 14.0 45 7.7 WNW 20 35 11 19 1000.9 - 0.0
25/09:30am 27.2 24.6 13.1 41 8.3 N 19 24 10 13 1000.6 - 0.0
25/09:00am 20.9 20.4 17.0 78 2.4 NNE 15 20 8 11 1000.5 1000.4 0.2
25/08:30am 21.3 20.5 17.2 77 2.5 N 17 22 9 12 1000.7 - 0.2
25/08:00am 21.7 20.2 17.7 78 2.5 N 22 28 12 15 1000.3 - 0.2
25/07:30am 22.0 19.6 17.3 74 2.9 N 26 32 14 17 1000.0 - 0.2
25/07:00am 22.0 19.6 17.3 74 2.9 N 26 32 14 17 1000.0 - 0.2
25/06:30am 22.3 19.4 17.1 72 3.2 N 28 33 15 18 1000.1 - 0.2
25/06:00am 22.3 19.0 16.9 71 3.3 N 30 32 16 17 999.6 999.7 0.2
25/05:30am 22.5 19.0 16.6 69 3.6 N 30 35 16 19 999.3 - 0.2
25/05:00am 22.7 18.7 16.3 67 3.9 N 32 35 17 19 999.0 - 0.2
25/04:30am 22.9 19.3 16.2 66 4.1 N 30 39 16 21 999.2 - 0.2
25/04:00am 22.5 19.1 15.9 66 4.0 N 28 33 15 18 999.4 - 0.2
25/03:30am 22.6 19.6 15.8 65 4.1 N 26 30 14 16 999.4 - 0.2
25/03:00am 23.3 19.6 15.1 60 4.9 N 28 32 15 17 1000.1 1000.2 0.2
25/02:30am 23.3 19.7 15.3 60 4.8 N 28 33 15 18 1000.3 - 0.2
25/02:00am 23.6 19.3 15.3 59 5.0 N 32 39 17 21 1000.9 - 0.2
25/01:30am 23.0 19.7 16.1 65 4.2 N 28 35 15 19 1001.3 - 0.2
25/01:00am 22.5 19.1 16.8 70 3.5 N 30 37 16 20 1002.0 - 0.2
25/12:30am 22.5 21.5 16.6 69 3.6 N 17 26 9 14 1003.2 - 0.2
25/12:00am 20.9 20.4 18.7 87 1.4 NNE 19 20 10 11 1003.7 1003.2 0.2
 
Date/Time
EDT
Temp
°C
App
Temp
°C
Dew
Point
°C
Rel
Hum
%
Delta-T
°C
Wind Press
QNH
hPa
Press
MSL
hPa
Rain since
9am
mm
Dir  Spd
km/h
Gust
km/h
Spd
kts
Gust
kts
24/11:30pm 20.8 20.8 18.9 89 1.2 NNE 17 20 9 11 1003.9 - 0.2
24/11:00pm 21.0 19.3 18.9 88 1.3 NNE 26 28 14 15 1003.9 - 0.2
24/10:30pm 21.3 18.8 18.9 86 1.5 NNE 30 35 16 19 1004.6 - 0.2
24/10:00pm 21.2 18.7 18.8 86 1.5 NNE 30 37 16 20 1005.0 - 0.2
24/09:30pm 21.3 18.2 18.8 86 1.6 N 33 43 18 23 1005.5 - 0.2
24/09:00pm 21.1 17.1 18.6 86 1.6 NNE 37 44 20 24 1005.5 1005.4 0.2
24/08:30pm 20.9 17.3 18.5 86 1.5 NNE 35 43 19 23 1005.8 - 0.2
24/08:00pm 20.9 16.8 18.3 85 1.6 NNE 37 46 20 25 1006.0 - 0.2
24/07:30pm 20.8 17.1 18.4 86 1.5 NNE 35 46 19 25 1006.0 - 0.2
24/07:00pm 20.8 16.7 18.2 85 1.6 NNE 37 44 20 24 1006.4 - 0.2
24/06:30pm 20.9 15.9 18.0 83 1.8 NNE 41 46 22 25 1006.6 - 0.2
24/06:00pm 21.0 17.6 18.1 83 1.8 NNE 33 39 18 21 1006.9 1007.0 0.2
24/05:30pm 21.1 18.3 18.2 83 1.8 NE 30 37 16 20 1007.4 - 0.2
24/05:00pm 21.3 18.5 18.3 83 1.9 NE 30 33 16 18 1007.5 - 0.2
24/04:30pm 21.3 19.2 18.1 82 2.0 NE 26 30 14 16 1007.9 - 0.2
24/04:00pm 21.2 18.9 17.6 80 2.2 NE 26 30 14 16 1008.3 - 0.2
24/03:30pm 21.3 20.6 17.4 78 2.4 ENE 17 20 9 11 1008.7 - 0.2
24/03:00pm 21.4 22.0 16.8 75 2.8 ENE 9 11 5 6 1009.1 1009.1 0.2
24/02:30pm 21.2 22.2 16.8 76 2.7 ENE 7 11 4 6 1009.4 - 0.2
24/02:00pm 20.9 22.0 16.6 76 2.6 W 6 9 3 5 1010.1 - 0.2
24/01:30pm 21.0 21.4 16.4 75 2.8 SW 9 11 5 6 1010.5 - 0.2
24/01:00pm 20.8 20.8 16.3 75 2.7 SW 11 13 6 7 1010.9 - 0.2
24/12:30pm 20.8 21.7 16.5 76 2.6 WSW 7 11 4 6 1011.3 - 0.2
24/12:00pm 20.6 20.8 15.7 73 2.9 WNW 9 11 5 6 1011.9 1011.9 0.2
24/11:30am 20.4 20.7 15.9 75 2.7 WNW 9 11 5 6 1012.1 - 0.2
24/11:00am 20.0 19.8 15.8 77 2.5 W 11 13 6 7 1012.6 - 0.2
24/10:30am 19.2 17.3 15.7 80 2.1 WSW 20 24 11 13 1012.7 - 0.2
24/10:00am 19.0 18.4 15.6 80 2.0 WSW 13 19 7 10 1012.0 - 0.2
24/09:30am 18.5 17.7 16.0 85 1.5 W 15 17 8 9 1011.6 - 0.2
24/09:00am 18.5 18.0 16.0 85 1.5 W 13 17 7 9 1011.3 1011.2 0.0
24/08:30am 18.7 16.7 15.5 81 1.9 W 20 26 11 14 1011.4 - 0.0
24/08:00am 19.0 16.1 15.1 78 2.3 WSW 24 30 13 16 1011.3 - 0.0
24/07:30am 18.9 15.2 15.1 78 2.2 WSW 28 32 15 17 1011.4 - 0.0
24/07:00am 18.8 16.8 15.6 82 1.9 W 20 26 11 14 1011.3 - 0.0
24/06:30am 18.9 16.8 16.2 84 1.6 W 22 33 12 18 1010.8 - 0.0
24/06:00am 19.0 16.5 16.2 84 1.7 WSW 24 32 13 17 1010.5 1010.4 0.0
24/05:30am 19.0 16.6 16.3 84 1.6 W 24 30 13 16 1010.7 - 0.0
24/05:00am 19.0 15.8 16.2 84 1.7 WSW 28 35 15 19 1010.4 - 0.0
24/04:30am 19.1 15.6 16.4 84 1.6 W 30 35 16 19 1010.3 - 0.0
24/04:00am 19.3 16.6 16.6 84 1.6 WSW 26 33 14 18 1010.0 - 0.0

Other formats

Comma delimited format used in spreadsheet applications
http://www.bom.gov.au/fwo/IDN60801/IDN60801.94933.axf

JavaScript Object Notation format (JSON) in row-major order
http://www.bom.gov.au/fwo/IDN60801/IDN60801.94933.json

Data quality

Most of these data are generated automatically and are frequently updated. Quality checks on data are not normally performed. It is possible for incorrect values to appear. Refer to information at About Latest Weather Observations and please check the disclaimer before using these data.